sensor_id;sensor_type;location;lat;lon;timestamp;temperature;humidity
12771;DHT22;6449;47.666;9.160;2023-04-03T00:02:30;6.80;99.90
12771;DHT22;6449;47.666;9.160;2023-04-03T00:07:23;6.40;99.90
12771;DHT22;6449;47.666;9.160;2023-04-03T00:17:23;6.20;99.90
12771;DHT22;6449;47.666;9.160;2023-04-03T00:22:18;6.30;99.90
12771;DHT22;6449;47.666;9.160;2023-04-03T00:27:12;6.20;99.90
12771;DHT22;6449;47.666;9.160;2023-04-03T00:32:05;6.10;99.90
12771;DHT22;6449;47.666;9.160;2023-04-03T00:36:59;6.10;99.90
12771;DHT22;6449;47.666;9.160;2023-04-03T00:41:54;6.30;99.90
12771;DHT22;6449;47.666;9.160;2023-04-03T00:46:47;6.30;99.90
12771;DHT22;6449;47.666;9.160;2023-04-03T00:56:49;6.20;99.90
12771;DHT22;6449;47.666;9.160;2023-04-03T01:01:46;6.10;99.90
12771;DHT22;6449;47.666;9.160;2023-04-03T01:22:13;5.90;99.90
12771;DHT22;6449;47.666;9.160;2023-04-03T01:42:35;5.60;99.90
12771;DHT22;6449;47.666;9.160;2023-04-03T01:47:28;5.70;99.90
12771;DHT22;6449;47.666;9.160;2023-04-03T01:52:22;5.80;99.90
12771;DHT22;6449;47.666;9.160;2023-04-03T01:57:15;5.70;99.90
12771;DHT22;6449;47.666;9.160;2023-04-03T02:02:10;5.80;99.90
12771;DHT22;6449;47.666;9.160;2023-04-03T02:07:06;5.50;99.90
12771;DHT22;6449;47.666;9.160;2023-04-03T02:27:10;5.60;99.90
12771;DHT22;6449;47.666;9.160;2023-04-03T02:32:04;5.50;99.90
12771;DHT22;6449;47.666;9.160;2023-04-03T02:36:58;5.50;99.90
12771;DHT22;6449;47.666;9.160;2023-04-03T02:47:00;5.10;99.90
12771;DHT22;6449;47.666;9.160;2023-04-03T02:51:54;5.10;99.90
12771;DHT22;6449;47.666;9.160;2023-04-03T02:56:47;5.00;99.90
12771;DHT22;6449;47.666;9.160;2023-04-03T03:11:41;5.40;99.90
12771;DHT22;6449;47.666;9.160;2023-04-03T03:26:34;5.00;99.90
12771;DHT22;6449;47.666;9.160;2023-04-03T03:31:28;4.90;99.90
12771;DHT22;6449;47.666;9.160;2023-04-03T03:46:31;4.90;99.90
12771;DHT22;6449;47.666;9.160;2023-04-03T03:51:25;4.90;99.90
12771;DHT22;6449;47.666;9.160;2023-04-03T03:56:18;4.70;99.90
12771;DHT22;6449;47.666;9.160;2023-04-03T04:01:12;4.60;99.90
12771;DHT22;6449;47.666;9.160;2023-04-03T04:06:07;4.50;99.90
12771;DHT22;6449;47.666;9.160;2023-04-03T04:11:01;4.30;99.90
12771;DHT22;6449;47.666;9.160;2023-04-03T04:15:54;4.40;99.90
12771;DHT22;6449;47.666;9.160;2023-04-03T04:20:47;4.50;99.90
12771;DHT22;6449;47.666;9.160;2023-04-03T04:25:44;4.50;99.90
12771;DHT22;6449;47.666;9.160;2023-04-03T04:30:43;4.60;99.90
12771;DHT22;6449;47.666;9.160;2023-04-03T04:35:42;4.60;99.90
12771;DHT22;6449;47.666;9.160;2023-04-03T04:40:36;4.40;99.90
12771;DHT22;6449;47.666;9.160;2023-04-03T04:45:31;4.30;99.90
12771;DHT22;6449;47.666;9.160;2023-04-03T04:50:25;4.30;99.90
12771;DHT22;6449;47.666;9.160;2023-04-03T05:05:39;4.40;99.90
12771;DHT22;6449;47.666;9.160;2023-04-03T05:10:32;4.40;99.90
12771;DHT22;6449;47.666;9.160;2023-04-03T05:15:26;4.30;99.90
12771;DHT22;6449;47.666;9.160;2023-04-03T05:20:19;4.30;99.90
12771;DHT22;6449;47.666;9.160;2023-04-03T05:25:14;4.40;99.90
12771;DHT22;6449;47.666;9.160;2023-04-03T05:30:08;4.40;99.90
12771;DHT22;6449;47.666;9.160;2023-04-03T05:35:03;4.30;99.90
12771;DHT22;6449;47.666;9.160;2023-04-03T05:39:57;4.30;99.90
12771;DHT22;6449;47.666;9.160;2023-04-03T05:44:52;4.40;99.90
12771;DHT22;6449;47.666;9.160;2023-04-03T05:49:45;4.10;99.90
12771;DHT22;6449;47.666;9.160;2023-04-03T05:54:39;4.10;99.90
12771;DHT22;6449;47.666;9.160;2023-04-03T05:59:33;3.90;99.90
12771;DHT22;6449;47.666;9.160;2023-04-03T06:04:28;3.90;99.90
12771;DHT22;6449;47.666;9.160;2023-04-03T06:09:24;3.90;99.90
12771;DHT22;6449;47.666;9.160;2023-04-03T06:14:20;4.00;99.90
12771;DHT22;6449;47.666;9.160;2023-04-03T06:19:14;4.20;99.90
12771;DHT22;6449;47.666;9.160;2023-04-03T06:24:15;4.40;99.90
12771;DHT22;6449;47.666;9.160;2023-04-03T06:29:09;4.40;99.90
12771;DHT22;6449;47.666;9.160;2023-04-03T06:34:03;4.40;99.90
12771;DHT22;6449;47.666;9.160;2023-04-03T06:39:00;4.40;99.90
12771;DHT22;6449;47.666;9.160;2023-04-03T06:43:56;4.50;99.90
12771;DHT22;6449;47.666;9.160;2023-04-03T06:48:50;4.70;99.90
12771;DHT22;6449;47.666;9.160;2023-04-03T06:53:44;4.70;99.90
12771;DHT22;6449;47.666;9.160;2023-04-03T06:58:37;4.80;99.90
12771;DHT22;6449;47.666;9.160;2023-04-03T07:03:33;4.70;99.90
12771;DHT22;6449;47.666;9.160;2023-04-03T07:08:27;4.80;99.90
12771;DHT22;6449;47.666;9.160;2023-04-03T07:13:21;4.70;99.90
12771;DHT22;6449;47.666;9.160;2023-04-03T07:18:36;4.60;99.90
12771;DHT22;6449;47.666;9.160;2023-04-03T07:23:31;4.70;99.90
12771;DHT22;6449;47.666;9.160;2023-04-03T07:28:25;4.80;99.90
12771;DHT22;6449;47.666;9.160;2023-04-03T07:33:20;4.80;99.90
12771;DHT22;6449;47.666;9.160;2023-04-03T07:38:16;4.70;99.90
12771;DHT22;6449;47.666;9.160;2023-04-03T07:43:10;4.80;99.90
12771;DHT22;6449;47.666;9.160;2023-04-03T07:48:04;4.90;99.90
12771;DHT22;6449;47.666;9.160;2023-04-03T07:52:58;5.20;99.90
12771;DHT22;6449;47.666;9.160;2023-04-03T07:57:53;5.00;99.90
12771;DHT22;6449;47.666;9.160;2023-04-03T08:02:47;5.10;99.90
12771;DHT22;6449;47.666;9.160;2023-04-03T08:07:43;5.30;99.90
12771;DHT22;6449;47.666;9.160;2023-04-03T08:12:37;5.30;99.90
12771;DHT22;6449;47.666;9.160;2023-04-03T08:17:31;5.30;99.90
12771;DHT22;6449;47.666;9.160;2023-04-03T08:22:25;5.30;99.90
12771;DHT22;6449;47.666;9.160;2023-04-03T08:27:19;5.20;99.90
12771;DHT22;6449;47.666;9.160;2023-04-03T08:32:12;5.20;99.90
12771;DHT22;6449;47.666;9.160;2023-04-03T08:37:07;5.10;99.90
12771;DHT22;6449;47.666;9.160;2023-04-03T08:42:05;5.00;99.90
12771;DHT22;6449;47.666;9.160;2023-04-03T08:47:14;5.00;99.90
12771;DHT22;6449;47.666;9.160;2023-04-03T08:52:20;5.30;99.90
12771;DHT22;6449;47.666;9.160;2023-04-03T08:57:30;5.30;99.90
12771;DHT22;6449;47.666;9.160;2023-04-03T09:02:29;5.30;99.90
12771;DHT22;6449;47.666;9.160;2023-04-03T09:07:33;5.20;99.90
12771;DHT22;6449;47.666;9.160;2023-04-03T09:12:35;5.30;99.90
12771;DHT22;6449;47.666;9.160;2023-04-03T09:17:41;5.30;99.90
12771;DHT22;6449;47.666;9.160;2023-04-03T09:22:47;5.50;99.90
12771;DHT22;6449;47.666;9.160;2023-04-03T09:27:44;5.50;99.90
12771;DHT22;6449;47.666;9.160;2023-04-03T09:32:37;5.60;99.90
12771;DHT22;6449;47.666;9.160;2023-04-03T09:37:37;5.60;99.90
12771;DHT22;6449;47.666;9.160;2023-04-03T09:42:40;5.50;99.90
12771;DHT22;6449;47.666;9.160;2023-04-03T09:47:42;5.60;99.90
12771;DHT22;6449;47.666;9.160;2023-04-03T09:52:36;5.60;99.90
12771;DHT22;6449;47.666;9.160;2023-04-03T09:57:34;5.80;99.90
12771;DHT22;6449;47.666;9.160;2023-04-03T10:02:45;6.10;99.90
12771;DHT22;6449;47.666;9.160;2023-04-03T10:07:44;6.00;99.90
12771;DHT22;6449;47.666;9.160;2023-04-03T10:13:05;6.10;99.90
12771;DHT22;6449;47.666;9.160;2023-04-03T10:18:13;6.30;99.90
12771;DHT22;6449;47.666;9.160;2023-04-03T10:23:23;6.40;99.90
12771;DHT22;6449;47.666;9.160;2023-04-03T10:28:24;6.30;99.90
12771;DHT22;6449;47.666;9.160;2023-04-03T10:33:49;6.10;99.90
12771;DHT22;6449;47.666;9.160;2023-04-03T10:38:57;5.90;99.90
12771;DHT22;6449;47.666;9.160;2023-04-03T10:44:06;6.20;99.90
12771;DHT22;6449;47.666;9.160;2023-04-03T10:49:22;6.50;99.90
12771;DHT22;6449;47.666;9.160;2023-04-03T10:54:32;6.50;99.90
12771;DHT22;6449;47.666;9.160;2023-04-03T10:59:36;6.40;99.90
12771;DHT22;6449;47.666;9.160;2023-04-03T11:04:35;6.30;99.90
12771;DHT22;6449;47.666;9.160;2023-04-03T11:09:34;6.50;99.90
12771;DHT22;6449;47.666;9.160;2023-04-03T11:14:34;6.50;99.90
12771;DHT22;6449;47.666;9.160;2023-04-03T11:19:35;6.60;99.90
12771;DHT22;6449;47.666;9.160;2023-04-03T11:24:32;6.70;99.90
12771;DHT22;6449;47.666;9.160;2023-04-03T11:29:35;6.80;99.90
12771;DHT22;6449;47.666;9.160;2023-04-03T11:34:36;6.70;99.90
12771;DHT22;6449;47.666;9.160;2023-04-03T11:44:34;6.60;99.90
12771;DHT22;6449;47.666;9.160;2023-04-03T11:49:52;6.50;99.90
12771;DHT22;6449;47.666;9.160;2023-04-03T11:54:48;6.60;99.90
12771;DHT22;6449;47.666;9.160;2023-04-03T11:59:43;6.50;99.90
12771;DHT22;6449;47.666;9.160;2023-04-03T12:04:37;6.50;99.90
12771;DHT22;6449;47.666;9.160;2023-04-03T12:15:44;6.60;99.90
12771;DHT22;6449;47.666;9.160;2023-04-03T12:21:01;6.70;99.90
12771;DHT22;6449;47.666;9.160;2023-04-03T12:26:20;6.70;99.90
12771;DHT22;6449;47.666;9.160;2023-04-03T12:31:36;6.70;99.90
12771;DHT22;6449;47.666;9.160;2023-04-03T12:41:50;6.50;99.90
12771;DHT22;6449;47.666;9.160;2023-04-03T12:46:53;6.70;99.90
12771;DHT22;6449;47.666;9.160;2023-04-03T13:02:01;6.70;99.90
12771;DHT22;6449;47.666;9.160;2023-04-03T13:17:19;6.90;99.90
12771;DHT22;6449;47.666;9.160;2023-04-03T13:22:23;7.00;99.90
12771;DHT22;6449;47.666;9.160;2023-04-03T13:27:22;7.00;99.90
12771;DHT22;6449;47.666;9.160;2023-04-03T13:32:32;6.80;99.90
12771;DHT22;6449;47.666;9.160;2023-04-03T13:37:29;6.90;99.90
12771;DHT22;6449;47.666;9.160;2023-04-03T13:42:26;6.90;99.90
12771;DHT22;6449;47.666;9.160;2023-04-03T13:47:23;6.90;99.90
12771;DHT22;6449;47.666;9.160;2023-04-03T13:52:29;7.10;99.90
12771;DHT22;6449;47.666;9.160;2023-04-03T14:02:32;7.10;99.90
12771;DHT22;6449;47.666;9.160;2023-04-03T14:12:37;7.00;99.90
12771;DHT22;6449;47.666;9.160;2023-04-03T14:22:39;7.10;99.90
12771;DHT22;6449;47.666;9.160;2023-04-03T14:27:36;6.90;99.90
12771;DHT22;6449;47.666;9.160;2023-04-03T14:37:38;6.80;99.90
12771;DHT22;6449;47.666;9.160;2023-04-03T14:42:34;6.70;99.90
12771;DHT22;6449;47.666;9.160;2023-04-03T14:52:35;6.60;99.90
12771;DHT22;6449;47.666;9.160;2023-04-03T14:57:30;6.50;99.90
12771;DHT22;6449;47.666;9.160;2023-04-03T15:02:33;6.60;99.90
12771;DHT22;6449;47.666;9.160;2023-04-03T15:07:31;6.70;99.90
12771;DHT22;6449;47.666;9.160;2023-04-03T15:12:26;6.70;99.90
12771;DHT22;6449;47.666;9.160;2023-04-03T15:17:21;6.70;99.90
12771;DHT22;6449;47.666;9.160;2023-04-03T15:22:19;6.70;99.90
12771;DHT22;6449;47.666;9.160;2023-04-03T15:37:28;6.60;99.90
12771;DHT22;6449;47.666;9.160;2023-04-03T15:52:25;6.50;99.90
12771;DHT22;6449;47.666;9.160;2023-04-03T15:57:20;6.40;99.90
12771;DHT22;6449;47.666;9.160;2023-04-03T16:02:17;6.30;99.90
12771;DHT22;6449;47.666;9.160;2023-04-03T16:07:11;6.20;99.90
12771;DHT22;6449;47.666;9.160;2023-04-03T16:12:05;6.30;99.90
12771;DHT22;6449;47.666;9.160;2023-04-03T16:17:00;6.20;99.90
12771;DHT22;6449;47.666;9.160;2023-04-03T16:21:54;6.20;99.90
12771;DHT22;6449;47.666;9.160;2023-04-03T16:31:54;6.20;99.90
12771;DHT22;6449;47.666;9.160;2023-04-03T16:36:50;6.20;99.90
12771;DHT22;6449;47.666;9.160;2023-04-03T16:41:45;6.20;99.90
12771;DHT22;6449;47.666;9.160;2023-04-03T16:46:38;6.20;99.90
12771;DHT22;6449;47.666;9.160;2023-04-03T16:56:41;5.90;99.90
12771;DHT22;6449;47.666;9.160;2023-04-03T17:01:34;5.90;99.90
12771;DHT22;6449;47.666;9.160;2023-04-03T17:06:31;5.90;99.90
12771;DHT22;6449;47.666;9.160;2023-04-03T17:11:25;5.90;99.90
12771;DHT22;6449;47.666;9.160;2023-04-03T17:16:20;5.90;99.90
12771;DHT22;6449;47.666;9.160;2023-04-03T17:21:14;5.80;99.90
12771;DHT22;6449;47.666;9.160;2023-04-03T17:26:09;5.70;99.90
12771;DHT22;6449;47.666;9.160;2023-04-03T17:31:03;5.80;99.90
12771;DHT22;6449;47.666;9.160;2023-04-03T17:35:59;5.80;99.90
12771;DHT22;6449;47.666;9.160;2023-04-03T17:46:05;5.60;99.90
12771;DHT22;6449;47.666;9.160;2023-04-03T17:51:04;5.50;99.90
12771;DHT22;6449;47.666;9.160;2023-04-03T17:56:04;5.50;99.90
12771;DHT22;6449;47.666;9.160;2023-04-03T18:00:58;5.40;99.90
12771;DHT22;6449;47.666;9.160;2023-04-03T18:05:52;5.40;99.90
12771;DHT22;6449;47.666;9.160;2023-04-03T18:10:47;5.40;99.90
12771;DHT22;6449;47.666;9.160;2023-04-03T18:15:41;5.40;99.90
12771;DHT22;6449;47.666;9.160;2023-04-03T18:20:36;5.40;99.90
12771;DHT22;6449;47.666;9.160;2023-04-03T18:25:30;5.40;99.90
12771;DHT22;6449;47.666;9.160;2023-04-03T18:30:25;5.30;99.90
12771;DHT22;6449;47.666;9.160;2023-04-03T18:35:20;5.30;99.90
12771;DHT22;6449;47.666;9.160;2023-04-03T18:40:13;5.10;99.90
12771;DHT22;6449;47.666;9.160;2023-04-03T18:45:10;5.00;99.90
12771;DHT22;6449;47.666;9.160;2023-04-03T18:50:08;5.10;99.90
12771;DHT22;6449;47.666;9.160;2023-04-03T18:55:02;5.10;99.90
12771;DHT22;6449;47.666;9.160;2023-04-03T18:59:57;5.10;99.90
12771;DHT22;6449;47.666;9.160;2023-04-03T19:04:51;5.10;99.90
12771;DHT22;6449;47.666;9.160;2023-04-03T19:09:48;5.20;99.90
12771;DHT22;6449;47.666;9.160;2023-04-03T19:14:41;5.10;99.90
12771;DHT22;6449;47.666;9.160;2023-04-03T19:19:35;5.10;99.90
12771;DHT22;6449;47.666;9.160;2023-04-03T19:24:28;5.20;99.90
12771;DHT22;6449;47.666;9.160;2023-04-03T19:29:23;5.10;99.90
12771;DHT22;6449;47.666;9.160;2023-04-03T19:34:17;5.10;99.90
12771;DHT22;6449;47.666;9.160;2023-04-03T19:39:10;5.00;99.90
12771;DHT22;6449;47.666;9.160;2023-04-03T19:44:06;4.90;99.90
12771;DHT22;6449;47.666;9.160;2023-04-03T19:49:02;4.80;99.90
12771;DHT22;6449;47.666;9.160;2023-04-03T19:53:56;4.80;99.90
12771;DHT22;6449;47.666;9.160;2023-04-03T19:58:50;4.80;99.90
12771;DHT22;6449;47.666;9.160;2023-04-03T20:03:45;4.80;99.90
12771;DHT22;6449;47.666;9.160;2023-04-03T20:08:40;4.70;99.90
12771;DHT22;6449;47.666;9.160;2023-04-03T20:13:34;4.70;99.90
12771;DHT22;6449;47.666;9.160;2023-04-03T20:18:29;4.70;99.90
12771;DHT22;6449;47.666;9.160;2023-04-03T20:23:23;4.60;99.90
12771;DHT22;6449;47.666;9.160;2023-04-03T20:28:19;4.50;99.90
12771;DHT22;6449;47.666;9.160;2023-04-03T20:33:13;4.50;99.90
12771;DHT22;6449;47.666;9.160;2023-04-03T20:38:07;4.50;99.90
12771;DHT22;6449;47.666;9.160;2023-04-03T20:43:00;4.40;99.90
12771;DHT22;6449;47.666;9.160;2023-04-03T20:47:55;4.30;99.90
12771;DHT22;6449;47.666;9.160;2023-04-03T20:52:49;4.40;99.90
12771;DHT22;6449;47.666;9.160;2023-04-03T20:57:42;4.30;99.90
12771;DHT22;6449;47.666;9.160;2023-04-03T21:02:45;4.30;99.90
12771;DHT22;6449;47.666;9.160;2023-04-03T21:19:25;4.10;99.90
12771;DHT22;6449;47.666;9.160;2023-04-03T21:24:18;4.10;99.90
12771;DHT22;6449;47.666;9.160;2023-04-03T21:29:12;4.10;99.90
12771;DHT22;6449;47.666;9.160;2023-04-03T21:34:05;4.00;99.90
12771;DHT22;6449;47.666;9.160;2023-04-03T21:39:00;4.00;99.90
12771;DHT22;6449;47.666;9.160;2023-04-03T21:43:54;3.80;99.90
12771;DHT22;6449;47.666;9.160;2023-04-03T21:48:47;3.80;99.90
12771;DHT22;6449;47.666;9.160;2023-04-03T21:53:41;3.80;99.90
12771;DHT22;6449;47.666;9.160;2023-04-03T21:58:37;3.80;99.90
12771;DHT22;6449;47.666;9.160;2023-04-03T22:03:30;3.80;99.90
12771;DHT22;6449;47.666;9.160;2023-04-03T22:08:25;4.00;99.90
12771;DHT22;6449;47.666;9.160;2023-04-03T22:13:18;3.90;99.90
12771;DHT22;6449;47.666;9.160;2023-04-03T22:18:13;3.70;99.90
12771;DHT22;6449;47.666;9.160;2023-04-03T22:23:07;3.60;99.90
12771;DHT22;6449;47.666;9.160;2023-04-03T22:28:01;3.70;99.90
12771;DHT22;6449;47.666;9.160;2023-04-03T22:32:54;3.80;99.90
12771;DHT22;6449;47.666;9.160;2023-04-03T22:37:49;3.80;99.90
12771;DHT22;6449;47.666;9.160;2023-04-03T22:42:45;3.70;99.90
12771;DHT22;6449;47.666;9.160;2023-04-03T22:47:38;3.60;99.90
12771;DHT22;6449;47.666;9.160;2023-04-03T22:52:32;3.50;99.90
12771;DHT22;6449;47.666;9.160;2023-04-03T22:57:27;3.50;99.90
12771;DHT22;6449;47.666;9.160;2023-04-03T23:02:20;3.50;99.90
12771;DHT22;6449;47.666;9.160;2023-04-03T23:07:14;3.30;99.90
12771;DHT22;6449;47.666;9.160;2023-04-03T23:12:08;3.30;99.90
12771;DHT22;6449;47.666;9.160;2023-04-03T23:17:03;3.20;99.90
12771;DHT22;6449;47.666;9.160;2023-04-03T23:21:57;3.10;99.90
12771;DHT22;6449;47.666;9.160;2023-04-03T23:26:50;3.10;99.90
12771;DHT22;6449;47.666;9.160;2023-04-03T23:31:44;3.20;99.90
12771;DHT22;6449;47.666;9.160;2023-04-03T23:36:39;3.00;99.90
12771;DHT22;6449;47.666;9.160;2023-04-03T23:41:32;2.80;99.90
12771;DHT22;6449;47.666;9.160;2023-04-03T23:46:26;2.70;99.90
12771;DHT22;6449;47.666;9.160;2023-04-03T23:51:19;2.60;99.90
12771;DHT22;6449;47.666;9.160;2023-04-03T23:56:14;2.70;99.90
